sensor_id;sensor_type;location;lat;lon;timestamp;P1;durP1;ratioP1;P2;durP2;ratioP2
23434;SDS011;11890;45.380;11.028;2024-01-30T00:02:02;149.77;;;39.00;;
23434;SDS011;11890;45.380;11.028;2024-01-30T00:04:30;107.80;;;32.50;;
23434;SDS011;11890;45.380;11.028;2024-01-30T00:06:57;119.75;;;31.88;;
23434;SDS011;11890;45.380;11.028;2024-01-30T00:09:25;83.00;;;30.15;;
23434;SDS011;11890;45.380;11.028;2024-01-30T00:11:53;100.63;;;30.20;;
23434;SDS011;11890;45.380;11.028;2024-01-30T00:14:20;86.60;;;29.15;;
23434;SDS011;11890;45.380;11.028;2024-01-30T00:16:48;93.50;;;29.80;;
23434;SDS011;11890;45.380;11.028;2024-01-30T00:19:17;99.10;;;29.73;;
23434;SDS011;11890;45.380;11.028;2024-01-30T00:21:45;88.47;;;29.13;;
23434;SDS011;11890;45.380;11.028;2024-01-30T00:24:13;82.05;;;28.75;;
23434;SDS011;11890;45.380;11.028;2024-01-30T00:26:41;76.13;;;27.80;;
23434;SDS011;11890;45.380;11.028;2024-01-30T00:29:08;76.68;;;27.45;;
23434;SDS011;11890;45.380;11.028;2024-01-30T00:31:36;82.82;;;29.27;;
23434;SDS011;11890;45.380;11.028;2024-01-30T00:34:07;75.10;;;26.23;;
23434;SDS011;11890;45.380;11.028;2024-01-30T00:36:35;65.72;;;27.73;;
23434;SDS011;11890;45.380;11.028;2024-01-30T00:39:03;77.82;;;27.55;;
23434;SDS011;11890;45.380;11.028;2024-01-30T00:41:35;76.28;;;27.60;;
23434;SDS011;11890;45.380;11.028;2024-01-30T00:44:03;81.53;;;26.65;;
23434;SDS011;11890;45.380;11.028;2024-01-30T00:46:31;92.07;;;28.45;;
23434;SDS011;11890;45.380;11.028;2024-01-30T00:48:59;115.82;;;26.83;;
23434;SDS011;11890;45.380;11.028;2024-01-30T00:51:27;86.90;;;27.35;;
23434;SDS011;11890;45.380;11.028;2024-01-30T00:53:56;85.85;;;26.65;;
23434;SDS011;11890;45.380;11.028;2024-01-30T00:56:24;88.93;;;27.95;;
23434;SDS011;11890;45.380;11.028;2024-01-30T00:58:51;69.38;;;28.73;;
23434;SDS011;11890;45.380;11.028;2024-01-30T01:01:19;71.03;;;27.13;;
23434;SDS011;11890;45.380;11.028;2024-01-30T01:03:47;62.22;;;26.75;;
23434;SDS011;11890;45.380;11.028;2024-01-30T01:06:15;64.00;;;28.50;;
23434;SDS011;11890;45.380;11.028;2024-01-30T01:08:43;66.00;;;26.13;;
23434;SDS011;11890;45.380;11.028;2024-01-30T01:11:11;76.53;;;27.13;;
23434;SDS011;11890;45.380;11.028;2024-01-30T01:13:39;63.72;;;27.92;;
23434;SDS011;11890;45.380;11.028;2024-01-30T01:16:06;51.33;;;26.27;;
23434;SDS011;11890;45.380;11.028;2024-01-30T01:18:34;80.45;;;25.83;;
23434;SDS011;11890;45.380;11.028;2024-01-30T01:21:02;72.15;;;25.77;;
23434;SDS011;11890;45.380;11.028;2024-01-30T01:23:30;65.82;;;27.15;;
23434;SDS011;11890;45.380;11.028;2024-01-30T01:25:58;64.07;;;26.00;;
23434;SDS011;11890;45.380;11.028;2024-01-30T01:28:27;69.55;;;25.92;;
23434;SDS011;11890;45.380;11.028;2024-01-30T01:30:55;71.57;;;25.50;;
23434;SDS011;11890;45.380;11.028;2024-01-30T01:33:26;72.45;;;26.35;;
23434;SDS011;11890;45.380;11.028;2024-01-30T01:35:54;75.57;;;25.70;;
23434;SDS011;11890;45.380;11.028;2024-01-30T01:38:22;50.75;;;24.35;;
23434;SDS011;11890;45.380;11.028;2024-01-30T01:40:50;66.88;;;25.85;;
23434;SDS011;11890;45.380;11.028;2024-01-30T01:43:18;51.00;;;24.92;;
23434;SDS011;11890;45.380;11.028;2024-01-30T01:45:46;70.22;;;26.63;;
23434;SDS011;11890;45.380;11.028;2024-01-30T01:48:13;56.67;;;26.55;;
23434;SDS011;11890;45.380;11.028;2024-01-30T01:50:42;53.30;;;25.30;;
23434;SDS011;11890;45.380;11.028;2024-01-30T01:53:10;58.80;;;27.40;;
23434;SDS011;11890;45.380;11.028;2024-01-30T01:55:38;66.50;;;27.45;;
23434;SDS011;11890;45.380;11.028;2024-01-30T01:58:06;71.55;;;25.88;;
23434;SDS011;11890;45.380;11.028;2024-01-30T02:00:35;59.13;;;24.77;;
23434;SDS011;11890;45.380;11.028;2024-01-30T02:03:06;73.35;;;26.23;;
23434;SDS011;11890;45.380;11.028;2024-01-30T02:05:36;66.75;;;25.40;;
23434;SDS011;11890;45.380;11.028;2024-01-30T02:08:04;75.03;;;25.95;;
23434;SDS011;11890;45.380;11.028;2024-01-30T02:10:32;51.72;;;25.23;;
23434;SDS011;11890;45.380;11.028;2024-01-30T02:13:00;63.67;;;24.73;;
23434;SDS011;11890;45.380;11.028;2024-01-30T02:15:28;56.22;;;25.15;;
23434;SDS011;11890;45.380;11.028;2024-01-30T02:17:56;47.40;;;25.58;;
23434;SDS011;11890;45.380;11.028;2024-01-30T02:20:24;61.60;;;26.85;;
23434;SDS011;11890;45.380;11.028;2024-01-30T02:22:52;69.28;;;26.38;;
23434;SDS011;11890;45.380;11.028;2024-01-30T02:25:30;56.20;;;27.02;;
23434;SDS011;11890;45.380;11.028;2024-01-30T02:27:58;73.45;;;25.60;;
23434;SDS011;11890;45.380;11.028;2024-01-30T02:30:26;65.93;;;24.58;;
23434;SDS011;11890;45.380;11.028;2024-01-30T02:32:53;44.05;;;23.88;;
23434;SDS011;11890;45.380;11.028;2024-01-30T02:35:21;69.85;;;25.67;;
23434;SDS011;11890;45.380;11.028;2024-01-30T02:37:49;54.97;;;25.10;;
23434;SDS011;11890;45.380;11.028;2024-01-30T02:40:17;55.47;;;24.23;;
23434;SDS011;11890;45.380;11.028;2024-01-30T02:42:45;63.95;;;25.27;;
23434;SDS011;11890;45.380;11.028;2024-01-30T02:45:12;55.92;;;24.63;;
23434;SDS011;11890;45.380;11.028;2024-01-30T02:47:40;58.38;;;24.42;;
23434;SDS011;11890;45.380;11.028;2024-01-30T02:50:08;65.13;;;26.63;;
23434;SDS011;11890;45.380;11.028;2024-01-30T02:52:36;69.72;;;25.10;;
23434;SDS011;11890;45.380;11.028;2024-01-30T02:55:04;48.83;;;24.92;;
23434;SDS011;11890;45.380;11.028;2024-01-30T02:57:32;50.05;;;25.23;;
23434;SDS011;11890;45.380;11.028;2024-01-30T03:00:01;46.60;;;25.10;;
23434;SDS011;11890;45.380;11.028;2024-01-30T03:02:29;62.13;;;25.90;;
23434;SDS011;11890;45.380;11.028;2024-01-30T03:04:57;46.92;;;24.92;;
23434;SDS011;11890;45.380;11.028;2024-01-30T03:07:25;82.30;;;26.38;;
23434;SDS011;11890;45.380;11.028;2024-01-30T03:09:53;68.95;;;25.65;;
23434;SDS011;11890;45.380;11.028;2024-01-30T03:12:22;65.70;;;25.02;;
23434;SDS011;11890;45.380;11.028;2024-01-30T03:14:50;88.07;;;26.20;;
23434;SDS011;11890;45.380;11.028;2024-01-30T03:17:17;81.95;;;25.80;;
23434;SDS011;11890;45.380;11.028;2024-01-30T03:19:45;65.78;;;24.15;;
23434;SDS011;11890;45.380;11.028;2024-01-30T03:22:13;74.60;;;25.45;;
23434;SDS011;11890;45.380;11.028;2024-01-30T03:24:41;69.07;;;24.83;;
23434;SDS011;11890;45.380;11.028;2024-01-30T03:27:09;59.63;;;23.92;;
23434;SDS011;11890;45.380;11.028;2024-01-30T03:29:36;64.43;;;23.33;;
23434;SDS011;11890;45.380;11.028;2024-01-30T03:32:04;83.68;;;24.90;;
23434;SDS011;11890;45.380;11.028;2024-01-30T03:34:32;71.60;;;24.00;;
23434;SDS011;11890;45.380;11.028;2024-01-30T03:37:00;66.45;;;23.83;;
23434;SDS011;11890;45.380;11.028;2024-01-30T03:39:28;62.20;;;24.95;;
23434;SDS011;11890;45.380;11.028;2024-01-30T03:41:56;73.05;;;23.40;;
23434;SDS011;11890;45.380;11.028;2024-01-30T03:44:23;57.97;;;22.63;;
23434;SDS011;11890;45.380;11.028;2024-01-30T03:46:51;51.85;;;22.27;;
23434;SDS011;11890;45.380;11.028;2024-01-30T03:49:19;39.40;;;20.85;;
23434;SDS011;11890;45.380;11.028;2024-01-30T03:51:47;38.95;;;20.25;;
23434;SDS011;11890;45.380;11.028;2024-01-30T03:54:15;37.05;;;19.58;;
23434;SDS011;11890;45.380;11.028;2024-01-30T03:56:43;36.95;;;20.30;;
23434;SDS011;11890;45.380;11.028;2024-01-30T03:59:11;35.88;;;20.65;;
23434;SDS011;11890;45.380;11.028;2024-01-30T04:01:38;43.13;;;21.75;;
23434;SDS011;11890;45.380;11.028;2024-01-30T04:04:06;63.92;;;23.55;;
23434;SDS011;11890;45.380;11.028;2024-01-30T04:06:34;46.30;;;23.65;;
23434;SDS011;11890;45.380;11.028;2024-01-30T04:09:02;47.58;;;22.38;;
23434;SDS011;11890;45.380;11.028;2024-01-30T04:11:30;59.58;;;24.27;;
23434;SDS011;11890;45.380;11.028;2024-01-30T04:13:58;51.97;;;25.23;;
23434;SDS011;11890;45.380;11.028;2024-01-30T04:16:26;48.90;;;24.95;;
23434;SDS011;11890;45.380;11.028;2024-01-30T04:18:53;50.20;;;24.45;;
23434;SDS011;11890;45.380;11.028;2024-01-30T04:21:21;49.83;;;25.65;;
23434;SDS011;11890;45.380;11.028;2024-01-30T04:23:50;46.70;;;25.08;;
23434;SDS011;11890;45.380;11.028;2024-01-30T04:26:18;81.75;;;26.70;;
23434;SDS011;11890;45.380;11.028;2024-01-30T04:28:46;57.25;;;26.83;;
23434;SDS011;11890;45.380;11.028;2024-01-30T04:31:14;58.38;;;28.58;;
23434;SDS011;11890;45.380;11.028;2024-01-30T04:33:42;60.08;;;29.20;;
23434;SDS011;11890;45.380;11.028;2024-01-30T04:36:09;67.00;;;32.33;;
23434;SDS011;11890;45.380;11.028;2024-01-30T04:38:38;74.13;;;31.38;;
23434;SDS011;11890;45.380;11.028;2024-01-30T04:41:06;76.57;;;31.70;;
23434;SDS011;11890;45.380;11.028;2024-01-30T04:43:33;80.85;;;31.65;;
23434;SDS011;11890;45.380;11.028;2024-01-30T04:46:01;71.97;;;32.28;;
23434;SDS011;11890;45.380;11.028;2024-01-30T04:48:29;74.32;;;33.65;;
23434;SDS011;11890;45.380;11.028;2024-01-30T04:50:57;75.88;;;32.92;;
23434;SDS011;11890;45.380;11.028;2024-01-30T04:53:25;70.97;;;31.70;;
23434;SDS011;11890;45.380;11.028;2024-01-30T04:55:52;55.45;;;29.77;;
23434;SDS011;11890;45.380;11.028;2024-01-30T04:58:20;64.25;;;30.98;;
23434;SDS011;11890;45.380;11.028;2024-01-30T05:00:48;53.58;;;28.60;;
23434;SDS011;11890;45.380;11.028;2024-01-30T05:03:21;61.50;;;28.65;;
23434;SDS011;11890;45.380;11.028;2024-01-30T05:05:50;52.78;;;21.20;;
23434;SDS011;11890;45.380;11.028;2024-01-30T05:08:18;47.95;;;25.90;;
23434;SDS011;11890;45.380;11.028;2024-01-30T05:10:46;51.28;;;26.60;;
23434;SDS011;11890;45.380;11.028;2024-01-30T05:13:14;55.78;;;25.60;;
23434;SDS011;11890;45.380;11.028;2024-01-30T05:15:42;59.75;;;26.63;;
23434;SDS011;11890;45.380;11.028;2024-01-30T05:18:09;77.25;;;27.30;;
23434;SDS011;11890;45.380;11.028;2024-01-30T05:20:37;52.88;;;27.02;;
23434;SDS011;11890;45.380;11.028;2024-01-30T05:23:05;53.42;;;26.58;;
23434;SDS011;11890;45.380;11.028;2024-01-30T05:25:33;77.32;;;27.58;;
23434;SDS011;11890;45.380;11.028;2024-01-30T05:28:01;52.75;;;25.58;;
23434;SDS011;11890;45.380;11.028;2024-01-30T05:30:28;63.55;;;24.02;;
23434;SDS011;11890;45.380;11.028;2024-01-30T05:32:56;49.53;;;26.42;;
23434;SDS011;11890;45.380;11.028;2024-01-30T05:35:24;60.03;;;27.58;;
23434;SDS011;11890;45.380;11.028;2024-01-30T05:37:52;59.65;;;24.55;;
23434;SDS011;11890;45.380;11.028;2024-01-30T05:40:20;56.63;;;23.67;;
23434;SDS011;11890;45.380;11.028;2024-01-30T05:42:48;53.97;;;24.55;;
23434;SDS011;11890;45.380;11.028;2024-01-30T05:45:15;54.05;;;26.52;;
23434;SDS011;11890;45.380;11.028;2024-01-30T05:47:43;51.80;;;25.52;;
23434;SDS011;11890;45.380;11.028;2024-01-30T05:50:11;50.15;;;25.58;;
23434;SDS011;11890;45.380;11.028;2024-01-30T05:52:39;46.10;;;26.15;;
23434;SDS011;11890;45.380;11.028;2024-01-30T05:55:07;58.85;;;25.70;;
23434;SDS011;11890;45.380;11.028;2024-01-30T05:57:34;50.80;;;25.40;;
23434;SDS011;11890;45.380;11.028;2024-01-30T06:00:03;66.40;;;27.42;;
23434;SDS011;11890;45.380;11.028;2024-01-30T06:02:32;60.58;;;25.75;;
23434;SDS011;11890;45.380;11.028;2024-01-30T06:05:00;62.13;;;25.85;;
23434;SDS011;11890;45.380;11.028;2024-01-30T06:07:27;69.50;;;29.88;;
23434;SDS011;11890;45.380;11.028;2024-01-30T06:10:01;58.35;;;26.40;;
23434;SDS011;11890;45.380;11.028;2024-01-30T06:12:29;56.80;;;27.38;;
23434;SDS011;11890;45.380;11.028;2024-01-30T06:14:57;56.97;;;27.58;;
23434;SDS011;11890;45.380;11.028;2024-01-30T06:17:25;64.43;;;26.60;;
23434;SDS011;11890;45.380;11.028;2024-01-30T06:19:53;66.15;;;27.23;;
23434;SDS011;11890;45.380;11.028;2024-01-30T06:22:21;58.63;;;27.55;;
23434;SDS011;11890;45.380;11.028;2024-01-30T06:24:48;57.88;;;27.77;;
23434;SDS011;11890;45.380;11.028;2024-01-30T06:27:16;59.70;;;26.42;;
23434;SDS011;11890;45.380;11.028;2024-01-30T06:29:44;58.22;;;26.77;;
23434;SDS011;11890;45.380;11.028;2024-01-30T06:32:15;74.32;;;27.48;;
23434;SDS011;11890;45.380;11.028;2024-01-30T06:34:43;55.80;;;24.42;;
23434;SDS011;11890;45.380;11.028;2024-01-30T06:37:11;53.55;;;24.13;;
23434;SDS011;11890;45.380;11.028;2024-01-30T06:39:39;48.63;;;24.10;;
23434;SDS011;11890;45.380;11.028;2024-01-30T06:42:07;68.38;;;23.25;;
23434;SDS011;11890;45.380;11.028;2024-01-30T06:44:34;67.60;;;23.25;;
23434;SDS011;11890;45.380;11.028;2024-01-30T06:47:02;70.75;;;24.05;;
23434;SDS011;11890;45.380;11.028;2024-01-30T06:49:30;52.28;;;21.90;;
23434;SDS011;11890;45.380;11.028;2024-01-30T06:51:58;46.42;;;22.90;;
23434;SDS011;11890;45.380;11.028;2024-01-30T06:54:26;52.30;;;22.13;;
23434;SDS011;11890;45.380;11.028;2024-01-30T06:56:54;41.17;;;21.73;;
23434;SDS011;11890;45.380;11.028;2024-01-30T06:59:22;66.22;;;22.98;;
23434;SDS011;11890;45.380;11.028;2024-01-30T07:01:49;36.00;;;20.25;;
23434;SDS011;11890;45.380;11.028;2024-01-30T07:04:17;60.95;;;22.20;;
23434;SDS011;11890;45.380;11.028;2024-01-30T07:06:45;48.05;;;22.77;;
23434;SDS011;11890;45.380;11.028;2024-01-30T07:09:13;60.13;;;23.42;;
23434;SDS011;11890;45.380;11.028;2024-01-30T07:11:41;54.47;;;21.88;;
23434;SDS011;11890;45.380;11.028;2024-01-30T07:14:09;65.75;;;23.33;;
23434;SDS011;11890;45.380;11.028;2024-01-30T07:16:37;60.55;;;22.63;;
23434;SDS011;11890;45.380;11.028;2024-01-30T07:19:04;54.50;;;23.02;;
23434;SDS011;11890;45.380;11.028;2024-01-30T07:21:32;50.58;;;22.63;;
23434;SDS011;11890;45.380;11.028;2024-01-30T07:24:00;54.05;;;23.55;;
23434;SDS011;11890;45.380;11.028;2024-01-30T07:26:28;44.83;;;21.83;;
23434;SDS011;11890;45.380;11.028;2024-01-30T07:28:55;40.30;;;22.98;;
23434;SDS011;11890;45.380;11.028;2024-01-30T07:31:23;58.03;;;22.98;;
23434;SDS011;11890;45.380;11.028;2024-01-30T07:33:51;73.93;;;25.85;;
23434;SDS011;11890;45.380;11.028;2024-01-30T07:36:20;49.67;;;23.25;;
23434;SDS011;11890;45.380;11.028;2024-01-30T07:38:48;46.40;;;23.02;;
23434;SDS011;11890;45.380;11.028;2024-01-30T07:41:15;65.57;;;23.25;;
23434;SDS011;11890;45.380;11.028;2024-01-30T07:43:43;49.92;;;23.40;;
23434;SDS011;11890;45.380;11.028;2024-01-30T07:46:11;45.80;;;23.42;;
23434;SDS011;11890;45.380;11.028;2024-01-30T07:48:39;48.90;;;23.13;;
23434;SDS011;11890;45.380;11.028;2024-01-30T07:51:07;50.92;;;24.55;;
23434;SDS011;11890;45.380;11.028;2024-01-30T07:53:35;38.80;;;22.63;;
23434;SDS011;11890;45.380;11.028;2024-01-30T07:56:03;55.25;;;23.13;;
23434;SDS011;11890;45.380;11.028;2024-01-30T07:58:30;57.53;;;25.30;;
23434;SDS011;11890;45.380;11.028;2024-01-30T08:00:58;44.65;;;24.02;;
23434;SDS011;11890;45.380;11.028;2024-01-30T08:03:28;51.10;;;24.17;;
23434;SDS011;11890;45.380;11.028;2024-01-30T08:05:55;59.50;;;24.33;;
23434;SDS011;11890;45.380;11.028;2024-01-30T08:08:23;62.58;;;24.27;;
23434;SDS011;11890;45.380;11.028;2024-01-30T08:10:52;44.70;;;24.48;;
23434;SDS011;11890;45.380;11.028;2024-01-30T08:13:20;38.70;;;23.60;;
23434;SDS011;11890;45.380;11.028;2024-01-30T08:15:48;60.78;;;23.95;;
23434;SDS011;11890;45.380;11.028;2024-01-30T08:18:16;48.20;;;22.02;;
23434;SDS011;11890;45.380;11.028;2024-01-30T08:20:43;39.78;;;23.23;;
23434;SDS011;11890;45.380;11.028;2024-01-30T08:23:11;49.80;;;22.85;;
23434;SDS011;11890;45.380;11.028;2024-01-30T08:25:39;43.75;;;22.88;;
23434;SDS011;11890;45.380;11.028;2024-01-30T08:28:07;56.55;;;22.40;;
23434;SDS011;11890;45.380;11.028;2024-01-30T08:30:35;51.55;;;22.38;;
23434;SDS011;11890;45.380;11.028;2024-01-30T08:33:02;44.00;;;20.65;;
23434;SDS011;11890;45.380;11.028;2024-01-30T08:35:30;43.92;;;23.13;;
23434;SDS011;11890;45.380;11.028;2024-01-30T08:38:03;50.00;;;24.65;;
23434;SDS011;11890;45.380;11.028;2024-01-30T08:40:31;45.65;;;23.23;;
23434;SDS011;11890;45.380;11.028;2024-01-30T08:42:59;44.83;;;22.25;;
23434;SDS011;11890;45.380;11.028;2024-01-30T08:45:26;51.08;;;22.13;;
23434;SDS011;11890;45.380;11.028;2024-01-30T08:47:54;52.92;;;23.38;;
23434;SDS011;11890;45.380;11.028;2024-01-30T08:50:22;51.45;;;24.13;;
23434;SDS011;11890;45.380;11.028;2024-01-30T08:52:50;43.90;;;24.77;;
23434;SDS011;11890;45.380;11.028;2024-01-30T08:55:18;43.72;;;23.95;;
23434;SDS011;11890;45.380;11.028;2024-01-30T08:57:46;43.42;;;24.40;;
23434;SDS011;11890;45.380;11.028;2024-01-30T09:00:14;45.75;;;24.42;;
23434;SDS011;11890;45.380;11.028;2024-01-30T09:02:41;39.90;;;24.27;;
23434;SDS011;11890;45.380;11.028;2024-01-30T09:05:10;41.10;;;23.60;;
23434;SDS011;11890;45.380;11.028;2024-01-30T09:07:38;47.25;;;23.05;;
23434;SDS011;11890;45.380;11.028;2024-01-30T09:10:06;50.55;;;23.77;;
23434;SDS011;11890;45.380;11.028;2024-01-30T09:12:37;43.58;;;24.08;;
23434;SDS011;11890;45.380;11.028;2024-01-30T09:15:05;37.70;;;23.17;;
23434;SDS011;11890;45.380;11.028;2024-01-30T09:17:33;41.65;;;22.33;;
23434;SDS011;11890;45.380;11.028;2024-01-30T09:20:01;52.22;;;22.65;;
23434;SDS011;11890;45.380;11.028;2024-01-30T09:22:29;46.47;;;23.00;;
23434;SDS011;11890;45.380;11.028;2024-01-30T09:24:58;54.67;;;22.52;;
23434;SDS011;11890;45.380;11.028;2024-01-30T09:27:26;47.75;;;22.70;;
23434;SDS011;11890;45.380;11.028;2024-01-30T09:29:53;43.92;;;22.60;;
23434;SDS011;11890;45.380;11.028;2024-01-30T09:32:21;59.83;;;22.75;;
23434;SDS011;11890;45.380;11.028;2024-01-30T09:34:49;50.38;;;23.48;;
23434;SDS011;11890;45.380;11.028;2024-01-30T09:37:17;49.40;;;24.67;;
23434;SDS011;11890;45.380;11.028;2024-01-30T09:39:45;44.95;;;24.05;;
23434;SDS011;11890;45.380;11.028;2024-01-30T09:42:33;62.85;;;23.25;;
23434;SDS011;11890;45.380;11.028;2024-01-30T09:45:03;54.67;;;27.00;;
23434;SDS011;11890;45.380;11.028;2024-01-30T09:47:31;60.42;;;26.02;;
23434;SDS011;11890;45.380;11.028;2024-01-30T09:49:59;45.85;;;24.80;;
23434;SDS011;11890;45.380;11.028;2024-01-30T09:52:29;51.30;;;24.08;;
23434;SDS011;11890;45.380;11.028;2024-01-30T09:54:59;72.68;;;28.58;;
23434;SDS011;11890;45.380;11.028;2024-01-30T09:57:27;50.58;;;26.58;;
23434;SDS011;11890;45.380;11.028;2024-01-30T09:59:54;54.08;;;27.25;;
23434;SDS011;11890;45.380;11.028;2024-01-30T10:02:22;53.10;;;28.85;;
23434;SDS011;11890;45.380;11.028;2024-01-30T10:04:51;53.05;;;28.75;;
23434;SDS011;11890;45.380;11.028;2024-01-30T10:07:18;60.47;;;28.33;;
23434;SDS011;11890;45.380;11.028;2024-01-30T10:09:47;63.17;;;29.00;;
23434;SDS011;11890;45.380;11.028;2024-01-30T10:12:16;50.28;;;27.95;;
23434;SDS011;11890;45.380;11.028;2024-01-30T10:14:43;64.32;;;32.22;;
23434;SDS011;11890;45.380;11.028;2024-01-30T10:17:12;63.53;;;30.42;;
23434;SDS011;11890;45.380;11.028;2024-01-30T10:19:53;62.45;;;30.67;;
23434;SDS011;11890;45.380;11.028;2024-01-30T10:22:21;50.42;;;30.17;;
23434;SDS011;11890;45.380;11.028;2024-01-30T10:24:49;56.35;;;29.85;;
23434;SDS011;11890;45.380;11.028;2024-01-30T10:27:17;51.90;;;30.33;;
23434;SDS011;11890;45.380;11.028;2024-01-30T10:29:51;54.00;;;31.67;;
23434;SDS011;11890;45.380;11.028;2024-01-30T10:32:19;53.95;;;30.98;;
23434;SDS011;11890;45.380;11.028;2024-01-30T10:34:47;64.30;;;32.45;;
23434;SDS011;11890;45.380;11.028;2024-01-30T10:37:16;55.88;;;30.05;;
23434;SDS011;11890;45.380;11.028;2024-01-30T10:39:44;47.85;;;29.60;;
23434;SDS011;11890;45.380;11.028;2024-01-30T10:42:14;54.88;;;30.48;;
23434;SDS011;11890;45.380;11.028;2024-01-30T10:47:26;49.58;;;29.67;;
23434;SDS011;11890;45.380;11.028;2024-01-30T10:49:54;45.23;;;29.00;;
23434;SDS011;11890;45.380;11.028;2024-01-30T10:52:23;54.92;;;29.73;;
23434;SDS011;11890;45.380;11.028;2024-01-30T10:54:56;53.95;;;29.15;;
23434;SDS011;11890;45.380;11.028;2024-01-30T10:57:24;49.20;;;30.27;;
23434;SDS011;11890;45.380;11.028;2024-01-30T10:59:53;45.83;;;29.70;;
23434;SDS011;11890;45.380;11.028;2024-01-30T11:02:23;49.08;;;29.73;;
23434;SDS011;11890;45.380;11.028;2024-01-30T11:04:55;45.20;;;28.02;;
23434;SDS011;11890;45.380;11.028;2024-01-30T11:07:25;45.00;;;28.67;;
23434;SDS011;11890;45.380;11.028;2024-01-30T11:09:59;45.78;;;29.20;;
23434;SDS011;11890;45.380;11.028;2024-01-30T11:12:31;50.47;;;29.00;;
23434;SDS011;11890;45.380;11.028;2024-01-30T11:17:40;53.20;;;29.30;;
23434;SDS011;11890;45.380;11.028;2024-01-30T11:23:25;46.00;;;29.05;;
23434;SDS011;11890;45.380;11.028;2024-01-30T11:25:54;49.75;;;29.02;;
23434;SDS011;11890;45.380;11.028;2024-01-30T11:28:34;43.47;;;27.83;;
23434;SDS011;11890;45.380;11.028;2024-01-30T11:31:05;42.90;;;27.38;;
23434;SDS011;11890;45.380;11.028;2024-01-30T11:33:34;41.00;;;26.55;;
23434;SDS011;11890;45.380;11.028;2024-01-30T11:36:02;43.45;;;29.33;;
23434;SDS011;11890;45.380;11.028;2024-01-30T11:38:33;47.03;;;28.85;;
23434;SDS011;11890;45.380;11.028;2024-01-30T11:41:01;44.63;;;29.27;;
23434;SDS011;11890;45.380;11.028;2024-01-30T11:43:30;45.20;;;29.33;;
23434;SDS011;11890;45.380;11.028;2024-01-30T11:46:01;42.75;;;29.15;;
23434;SDS011;11890;45.380;11.028;2024-01-30T11:48:29;46.35;;;28.33;;
23434;SDS011;11890;45.380;11.028;2024-01-30T11:50:57;41.05;;;27.73;;
23434;SDS011;11890;45.380;11.028;2024-01-30T11:53:25;38.50;;;26.95;;
23434;SDS011;11890;45.380;11.028;2024-01-30T11:55:53;39.50;;;26.80;;
23434;SDS011;11890;45.380;11.028;2024-01-30T11:58:24;39.40;;;25.80;;
23434;SDS011;11890;45.380;11.028;2024-01-30T12:00:53;40.67;;;26.35;;
23434;SDS011;11890;45.380;11.028;2024-01-30T12:03:22;44.90;;;27.55;;
23434;SDS011;11890;45.380;11.028;2024-01-30T12:05:56;35.88;;;26.55;;
23434;SDS011;11890;45.380;11.028;2024-01-30T12:08:28;37.97;;;26.08;;
23434;SDS011;11890;45.380;11.028;2024-01-30T12:10:56;36.60;;;25.63;;
23434;SDS011;11890;45.380;11.028;2024-01-30T12:13:25;34.20;;;26.35;;
23434;SDS011;11890;45.380;11.028;2024-01-30T12:15:58;40.83;;;28.90;;
23434;SDS011;11890;45.380;11.028;2024-01-30T12:18:26;39.42;;;27.38;;
23434;SDS011;11890;45.380;11.028;2024-01-30T12:21:00;40.50;;;28.77;;
23434;SDS011;11890;45.380;11.028;2024-01-30T12:23:28;54.53;;;36.53;;
23434;SDS011;11890;45.380;11.028;2024-01-30T12:25:56;60.08;;;38.47;;
23434;SDS011;11890;45.380;11.028;2024-01-30T12:28:24;63.45;;;43.58;;
23434;SDS011;11890;45.380;11.028;2024-01-30T12:30:56;73.20;;;47.13;;
23434;SDS011;11890;45.380;11.028;2024-01-30T12:33:26;75.10;;;49.13;;
23434;SDS011;11890;45.380;11.028;2024-01-30T12:36:01;74.88;;;48.30;;
23434;SDS011;11890;45.380;11.028;2024-01-30T12:38:30;75.93;;;46.67;;
23434;SDS011;11890;45.380;11.028;2024-01-30T12:44:28;71.40;;;46.55;;
23434;SDS011;11890;45.380;11.028;2024-01-30T12:48:06;70.38;;;43.00;;
23434;SDS011;11890;45.380;11.028;2024-01-30T12:50:34;74.03;;;45.25;;
23434;SDS011;11890;45.380;11.028;2024-01-30T12:53:02;64.55;;;41.50;;
23434;SDS011;11890;45.380;11.028;2024-01-30T12:55:31;55.72;;;36.92;;
23434;SDS011;11890;45.380;11.028;2024-01-30T12:57:59;53.00;;;36.22;;
23434;SDS011;11890;45.380;11.028;2024-01-30T13:00:27;55.40;;;36.38;;
23434;SDS011;11890;45.380;11.028;2024-01-30T13:02:55;45.90;;;31.92;;
23434;SDS011;11890;45.380;11.028;2024-01-30T13:05:22;46.05;;;32.10;;
23434;SDS011;11890;45.380;11.028;2024-01-30T13:07:51;42.03;;;30.10;;
23434;SDS011;11890;45.380;11.028;2024-01-30T13:10:20;42.35;;;29.65;;
23434;SDS011;11890;45.380;11.028;2024-01-30T13:12:47;37.33;;;27.55;;
23434;SDS011;11890;45.380;11.028;2024-01-30T13:15:15;40.65;;;28.45;;
23434;SDS011;11890;45.380;11.028;2024-01-30T13:17:43;37.88;;;27.33;;
23434;SDS011;11890;45.380;11.028;2024-01-30T13:20:13;40.58;;;28.88;;
23434;SDS011;11890;45.380;11.028;2024-01-30T13:22:47;41.08;;;28.15;;
23434;SDS011;11890;45.380;11.028;2024-01-30T13:25:16;36.88;;;28.23;;
23434;SDS011;11890;45.380;11.028;2024-01-30T13:27:44;37.35;;;27.27;;
23434;SDS011;11890;45.380;11.028;2024-01-30T13:30:12;36.38;;;25.83;;
23434;SDS011;11890;45.380;11.028;2024-01-30T13:32:40;39.33;;;26.85;;
23434;SDS011;11890;45.380;11.028;2024-01-30T13:35:11;39.65;;;28.58;;
23434;SDS011;11890;45.380;11.028;2024-01-30T13:37:39;39.83;;;25.45;;
23434;SDS011;11890;45.380;11.028;2024-01-30T13:40:08;35.20;;;25.77;;
23434;SDS011;11890;45.380;11.028;2024-01-30T13:42:40;35.38;;;26.55;;
23434;SDS011;11890;45.380;11.028;2024-01-30T13:45:08;38.42;;;26.25;;
23434;SDS011;11890;45.380;11.028;2024-01-30T13:47:37;41.28;;;27.48;;
23434;SDS011;11890;45.380;11.028;2024-01-30T13:50:05;37.42;;;26.63;;
23434;SDS011;11890;45.380;11.028;2024-01-30T13:52:36;38.22;;;27.33;;
23434;SDS011;11890;45.380;11.028;2024-01-30T13:55:11;38.70;;;27.48;;
23434;SDS011;11890;45.380;11.028;2024-01-30T13:57:39;36.40;;;26.33;;
23434;SDS011;11890;45.380;11.028;2024-01-30T14:00:08;37.45;;;26.55;;
23434;SDS011;11890;45.380;11.028;2024-01-30T14:02:38;39.28;;;26.92;;
23434;SDS011;11890;45.380;11.028;2024-01-30T14:05:06;40.42;;;28.05;;
23434;SDS011;11890;45.380;11.028;2024-01-30T14:07:35;35.35;;;27.27;;
23434;SDS011;11890;45.380;11.028;2024-01-30T14:10:03;38.67;;;26.80;;
23434;SDS011;11890;45.380;11.028;2024-01-30T14:12:37;35.47;;;25.73;;
23434;SDS011;11890;45.380;11.028;2024-01-30T14:15:08;42.90;;;28.08;;
23434;SDS011;11890;45.380;11.028;2024-01-30T14:17:53;38.88;;;26.60;;
23434;SDS011;11890;45.380;11.028;2024-01-30T14:20:21;36.92;;;25.38;;
23434;SDS011;11890;45.380;11.028;2024-01-30T14:22:49;39.10;;;27.10;;
23434;SDS011;11890;45.380;11.028;2024-01-30T14:25:18;38.88;;;28.30;;
23434;SDS011;11890;45.380;11.028;2024-01-30T14:27:46;45.58;;;29.17;;
23434;SDS011;11890;45.380;11.028;2024-01-30T14:30:14;44.80;;;28.42;;